Terminal Aerodrome Forecast
Issued by NWS

Home | Current Version | Previous Version | Graphics & Text | Print | Product List | Glossary On
Versions: 1 2 3 4 5 6 7 8 9 10 11 12 13 14 15 16 17
000
FTUS43 KABR 232148 AAE
TAFATY
TAF AMD
KATY 232148Z 2322/2418 11011G20KT P6SM VCTS BKN050CB BKN120
     FM232215 12013G21KT P6SM FEW050 SCT120
     FM240400 16011KT P6SM SCT250 WS020/18040KT
     FM241000 18011KT P6SM SCT150=

USA.gov is the U.S. government's official web portal to all federal, state and local government web resources and services.